Time;durP1;ratioP1;P1;durP2;ratioP2;P2;SDS_P1;SDS_P2;PMS_P1;PMS_P2;Temp;Humidity;BMP_temperature;BMP_pressure;BME280_temperature;BME280_humidity;BME280_pressure;Samples;Min_cycle;Max_cycle;Signal;HPM_P1;HPM_P2
2023/05/05 00:00:21;;;;;;;;;;;18.60;86.50;;;;;;5115780;28;19912;-61
2023/05/05 00:02:47;;;;;;;;;;;18.60;86.40;;;;;;5116521;28;19908;-61
2023/05/05 00:05:13;;;;;;;;;;;18.60;86.40;;;;;;5114853;28;19908;-61
2023/05/05 00:07:38;;;;;;;;;;;18.60;86.30;;;;;;5114458;27;19963;-61
2023/05/05 00:10:04;;;;;;;;;;;18.70;86.40;;;;;;5114780;28;19911;-61
2023/05/05 00:12:30;;;;;;;;;;;18.70;86.30;;;;;;5116052;28;20412;-62
2023/05/05 00:14:55;;;;;;;;;;;18.70;86.30;;;;;;5116283;28;19907;-62
2023/05/05 00:17:21;;;;;;;;;;;18.70;86.30;;;;;;5115224;28;20290;-58
2023/05/05 00:19:46;;;;;;;;;;;18.70;86.30;;;;;;5113964;28;19945;-62
2023/05/05 00:22:12;;;;;;;;;;;18.70;86.30;;;;;;5116104;28;19907;-62
2023/05/05 00:24:37;;;;;;;;;;;18.70;86.30;;;;;;5115704;28;19912;-61
2023/05/05 00:27:03;;;;;;;;;;;18.70;86.30;;;;;;5114876;28;19955;-61
2023/05/05 00:29:28;;;;;;;;;;;18.70;86.30;;;;;;5114925;28;19916;-61
2023/05/05 00:31:55;;;;;;;;;;;18.70;86.40;;;;;;5115624;28;20339;-61
2023/05/05 00:34:20;;;;;;;;;;;18.70;86.30;;;;;;5115301;28;19915;-61
2023/05/05 00:36:46;;;;;;;;;;;18.70;86.30;;;;;;5115213;28;19908;-61
2023/05/05 00:39:12;;;;;;;;;;;18.70;86.40;;;;;;5114987;28;20274;-61
2023/05/05 00:41:37;;;;;;;;;;;18.70;86.30;;;;;;5115635;28;19915;-61
2023/05/05 00:44:03;;;;;;;;;;;18.70;86.40;;;;;;5115660;28;19923;-62
2023/05/05 00:46:29;;;;;;;;;;;18.70;86.40;;;;;;5115221;28;19919;-62
2023/05/05 00:48:55;;;;;;;;;;;18.60;86.30;;;;;;5113126;28;19936;-61
2023/05/05 00:51:20;;;;;;;;;;;18.60;86.30;;;;;;5115195;28;20259;-62
2023/05/05 00:53:49;;;;;;;;;;;18.60;86.30;;;;;;5115204;28;19908;-61
2023/05/05 00:56:15;;;;;;;;;;;18.70;86.30;;;;;;5114920;28;19961;-61
2023/05/05 00:58:41;;;;;;;;;;;18.60;86.30;;;;;;5114812;28;19915;-61
2023/05/05 01:01:07;;;;;;;;;;;18.70;86.30;;;;;;5114778;27;19916;-61
2023/05/05 01:03:34;;;;;;;;;;;18.70;86.30;;;;;;5114807;28;20329;-61
2023/05/05 01:06:05;;;;;;;;;;;18.70;86.20;;;;;;5114950;28;20366;-61
2023/05/05 01:08:39;;;;;;;;;;;18.70;86.20;;;;;;5114218;28;19922;-61
2023/05/05 01:11:27;;;;;;;;;;;18.70;86.20;;;;;;5114718;28;19914;-61
2023/05/05 01:14:14;;;;;;;;;;;18.70;86.20;;;;;;5076111;28;19961;-61
2023/05/05 01:16:47;;;;;;;;;;;18.70;86.20;;;;;;5114909;28;19912;-61
2023/05/05 01:19:13;;;;;;;;;;;18.70;86.20;;;;;;5113929;27;19921;-61
2023/05/05 01:21:47;;;;;;;;;;;18.70;86.20;;;;;;5114573;28;19908;-61
2023/05/05 01:24:36;;;;;;;;;;;18.70;86.20;;;;;;5113315;27;20350;-61
2023/05/05 01:27:26;;;;;;;;;;;18.70;86.20;;;;;;5114918;28;20331;-61
2023/05/05 01:29:54;;;;;;;;;;;18.70;86.20;;;;;;5114300;28;19916;-61
2023/05/05 01:32:22;;;;;;;;;;;18.70;86.30;;;;;;5113422;28;20251;-62
2023/05/05 01:35:00;;;;;;;;;;;18.70;86.20;;;;;;5114965;28;19946;-60
2023/05/05 01:37:27;;;;;;;;;;;18.70;86.20;;;;;;5114486;28;19930;-61
2023/05/05 01:39:55;;;;;;;;;;;18.70;86.30;;;;;;5113866;28;19918;-61
2023/05/05 01:42:21;;;;;;;;;;;18.70;86.30;;;;;;5112795;28;19908;-60
2023/05/05 01:44:47;;;;;;;;;;;18.70;86.30;;;;;;5114283;28;20354;-61
2023/05/05 01:47:13;;;;;;;;;;;18.60;86.20;;;;;;5114106;27;19912;-61
2023/05/05 01:49:39;;;;;;;;;;;18.70;86.30;;;;;;5113297;28;19960;-61
2023/05/05 01:52:05;;;;;;;;;;;18.70;86.30;;;;;;5114467;28;19908;-61
2023/05/05 01:54:32;;;;;;;;;;;18.60;86.30;;;;;;5114454;28;20306;-61
2023/05/05 01:56:57;;;;;;;;;;;18.60;86.30;;;;;;5114163;28;19915;-61
2023/05/05 01:59:24;;;;;;;;;;;18.70;86.30;;;;;;5113371;28;19912;-61
2023/05/05 02:01:50;;;;;;;;;;;18.70;86.30;;;;;;5114061;28;20445;-61
2023/05/05 02:04:17;;;;;;;;;;;18.70;86.30;;;;;;5114159;28;19908;-61
2023/05/05 02:06:44;;;;;;;;;;;18.60;86.30;;;;;;5113111;28;19966;-61
2023/05/05 02:09:10;;;;;;;;;;;18.60;86.30;;;;;;5114046;28;19923;-61
2023/05/05 02:11:37;;;;;;;;;;;18.60;86.30;;;;;;5114648;28;19930;-61
2023/05/05 02:14:03;;;;;;;;;;;18.60;86.30;;;;;;5114046;28;19907;-61
2023/05/05 02:16:30;;;;;;;;;;;18.70;86.30;;;;;;5113935;28;19919;-61
2023/05/05 02:18:56;;;;;;;;;;;18.70;86.30;;;;;;5111795;28;20362;-59
2023/05/05 02:21:22;;;;;;;;;;;18.70;86.30;;;;;;5093606;28;19995;-61
2023/05/05 02:23:50;;;;;;;;;;;18.70;86.30;;;;;;5093839;28;19943;-61
2023/05/05 02:26:18;;;;;;;;;;;18.70;86.20;;;;;;5093763;28;20347;-61
2023/05/05 02:28:47;;;;;;;;;;;18.70;86.20;;;;;;5103785;28;20388;-61
2023/05/05 02:31:15;;;;;;;;;;;18.70;86.20;;;;;;5112116;28;19911;-61
2023/05/05 02:33:41;;;;;;;;;;;18.70;86.20;;;;;;5114060;28;19908;-61
2023/05/05 02:36:11;;;;;;;;;;;18.70;86.20;;;;;;5113791;28;19908;-60
2023/05/05 02:38:39;;;;;;;;;;;18.70;86.10;;;;;;5113038;28;19939;-61
2023/05/05 02:41:06;;;;;;;;;;;18.70;86.10;;;;;;5112835;28;19908;-61
2023/05/05 02:43:32;;;;;;;;;;;18.70;86.10;;;;;;5113823;28;20014;-61
2023/05/05 02:45:58;;;;;;;;;;;18.70;86.10;;;;;;5113640;28;19918;-61
2023/05/05 02:48:23;;;;;;;;;;;18.70;86.10;;;;;;5113131;28;19916;-61
2023/05/05 02:50:49;;;;;;;;;;;18.70;86.10;;;;;;5117074;28;19963;-61
2023/05/05 02:53:14;;;;;;;;;;;18.70;86.20;;;;;;5117621;28;19915;-61
2023/05/05 02:55:44;;;;;;;;;;;18.70;86.20;;;;;;5117295;28;19955;-61
2023/05/05 02:58:15;;;;;;;;;;;18.70;86.20;;;;;;5117195;28;19998;-61
2023/05/05 03:00:44;;;;;;;;;;;18.70;86.20;;;;;;5117267;28;19912;-61
2023/05/05 03:03:20;;;;;;;;;;;18.70;86.20;;;;;;5117391;28;19957;-61
2023/05/05 03:05:50;;;;;;;;;;;18.70;86.30;;;;;;5116973;28;19908;-61
2023/05/05 03:08:24;;;;;;;;;;;18.70;86.30;;;;;;5116428;28;19923;-61
2023/05/05 03:10:58;;;;;;;;;;;18.70;86.30;;;;;;5117207;28;19961;-61
2023/05/05 03:13:25;;;;;;;;;;;18.70;86.30;;;;;;5116807;28;20270;-61
2023/05/05 03:15:51;;;;;;;;;;;18.70;86.30;;;;;;5117106;28;19914;-61
2023/05/05 03:18:17;;;;;;;;;;;18.70;86.30;;;;;;5116023;28;19912;-61
2023/05/05 03:20:43;;;;;;;;;;;18.70;86.30;;;;;;5116776;28;19912;-61
2023/05/05 03:23:09;;;;;;;;;;;18.70;86.20;;;;;;5117450;28;19911;-61
2023/05/05 03:25:47;;;;;;;;;;;18.70;86.20;;;;;;5116554;28;20007;-61
2023/05/05 03:28:13;;;;;;;;;;;18.70;86.20;;;;;;5116214;27;19916;-60
2023/05/05 03:30:39;;;;;;;;;;;18.70;86.20;;;;;;5116686;28;19972;-60
2023/05/05 03:33:04;;;;;;;;;;;18.70;86.20;;;;;;5116412;28;20355;-61
2023/05/05 03:35:30;;;;;;;;;;;18.70;86.20;;;;;;5116595;28;19912;-61
2023/05/05 03:37:55;;;;;;;;;;;18.70;86.10;;;;;;5115568;28;19912;-61
2023/05/05 03:40:24;;;;;;;;;;;18.70;86.10;;;;;;5116987;28;20359;-61
2023/05/05 03:42:49;;;;;;;;;;;18.70;86.20;;;;;;5116459;28;19965;-61
2023/05/05 03:45:15;;;;;;;;;;;18.70;86.20;;;;;;5116581;28;19912;-61
2023/05/05 03:47:41;;;;;;;;;;;18.70;86.20;;;;;;5115328;27;20006;-60
2023/05/05 03:50:06;;;;;;;;;;;18.70;86.20;;;;;;5116182;28;20014;-61
2023/05/05 03:52:32;;;;;;;;;;;18.70;86.20;;;;;;5116086;28;19946;-62
2023/05/05 03:54:58;;;;;;;;;;;18.70;86.20;;;;;;5116196;28;19915;-61
2023/05/05 03:57:25;;;;;;;;;;;18.70;86.20;;;;;;5115359;28;20259;-61
2023/05/05 03:59:50;;;;;;;;;;;18.80;86.20;;;;;;5115445;28;19912;-61
2023/05/05 04:02:15;;;;;;;;;;;18.70;86.20;;;;;;5114818;28;19915;-61
2023/05/05 04:04:41;;;;;;;;;;;18.70;86.20;;;;;;5116188;28;19918;-61
2023/05/05 04:07:06;;;;;;;;;;;18.70;86.20;;;;;;5115004;28;20285;-61
2023/05/05 04:09:32;;;;;;;;;;;18.80;86.20;;;;;;5115985;28;20010;-61
2023/05/05 04:11:57;;;;;;;;;;;18.80;86.20;;;;;;5115964;28;19911;-61
2023/05/05 04:14:23;;;;;;;;;;;18.80;86.20;;;;;;5115916;28;19912;-61
2023/05/05 04:16:48;;;;;;;;;;;18.70;86.10;;;;;;5114951;27;19918;-61
2023/05/05 04:19:14;;;;;;;;;;;18.70;86.10;;;;;;5115502;28;19908;-61
2023/05/05 04:21:39;;;;;;;;;;;18.80;86.10;;;;;;5115434;28;19951;-61
2023/05/05 04:24:05;;;;;;;;;;;18.80;86.10;;;;;;5115656;28;20389;-61
2023/05/05 04:26:31;;;;;;;;;;;18.80;86.10;;;;;;5115500;28;19911;-62
2023/05/05 04:28:56;;;;;;;;;;;18.80;86.10;;;;;;5114894;28;19923;-61
2023/05/05 04:31:22;;;;;;;;;;;18.80;86.10;;;;;;5115544;28;19919;-61
2023/05/05 04:33:47;;;;;;;;;;;18.70;86.00;;;;;;5115140;28;19994;-61
2023/05/05 04:36:12;;;;;;;;;;;18.80;86.10;;;;;;5115071;28;19907;-61
2023/05/05 04:38:38;;;;;;;;;;;18.80;86.10;;;;;;5113837;28;19912;-58
2023/05/05 04:41:05;;;;;;;;;;;18.80;86.10;;;;;;5114930;28;19911;-61
2023/05/05 04:43:30;;;;;;;;;;;18.80;86.10;;;;;;5115165;27;19920;-61
2023/05/05 04:45:56;;;;;;;;;;;18.80;86.10;;;;;;5114859;28;20017;-61
2023/05/05 04:48:21;;;;;;;;;;;18.80;86.20;;;;;;5114189;27;19969;-61
2023/05/05 04:50:47;;;;;;;;;;;18.80;86.10;;;;;;5113899;27;19912;-61
2023/05/05 04:53:12;;;;;;;;;;;18.80;86.20;;;;;;5115113;28;20362;-61
2023/05/05 04:55:38;;;;;;;;;;;18.80;86.20;;;;;;5113738;28;19934;-61
2023/05/05 04:58:03;;;;;;;;;;;18.80;86.20;;;;;;5114672;28;20428;-61
2023/05/05 05:00:29;;;;;;;;;;;18.80;86.20;;;;;;5113475;27;20010;-60
2023/05/05 05:02:54;;;;;;;;;;;18.80;86.20;;;;;;5114379;28;19919;-61
2023/05/05 05:05:20;;;;;;;;;;;18.80;86.20;;;;;;5115219;28;19908;-61
2023/05/05 05:07:46;;;;;;;;;;;18.80;86.10;;;;;;5114657;28;19919;-61
2023/05/05 05:10:11;;;;;;;;;;;18.80;86.10;;;;;;5114748;28;19954;-61
2023/05/05 05:12:37;;;;;;;;;;;18.80;86.00;;;;;;5111614;27;19920;-61
2023/05/05 05:15:02;;;;;;;;;;;18.80;86.00;;;;;;5113283;27;19942;-61
2023/05/05 05:17:29;;;;;;;;;;;18.80;86.00;;;;;;5114610;28;19915;-61
2023/05/05 05:19:55;;;;;;;;;;;18.80;86.00;;;;;;5114596;28;19907;-61
2023/05/05 05:22:20;;;;;;;;;;;18.80;86.00;;;;;;5114279;28;19915;-61
2023/05/05 05:24:46;;;;;;;;;;;18.80;86.00;;;;;;5114319;27;19957;-61
2023/05/05 05:27:11;;;;;;;;;;;18.80;86.00;;;;;;5114238;28;19957;-61
2023/05/05 05:29:37;;;;;;;;;;;18.80;86.10;;;;;;5118045;27;20293;-61
2023/05/05 05:32:02;;;;;;;;;;;18.80;86.10;;;;;;5113134;28;19918;-60
2023/05/05 05:34:28;;;;;;;;;;;18.80;86.10;;;;;;5114670;28;20302;-61
2023/05/05 05:36:53;;;;;;;;;;;18.80;86.10;;;;;;5114422;28;19961;-61
2023/05/05 05:39:18;;;;;;;;;;;18.80;86.10;;;;;;5114241;28;19916;-61
2023/05/05 05:41:44;;;;;;;;;;;18.80;86.10;;;;;;5112011;28;20375;-60
2023/05/05 05:44:09;;;;;;;;;;;18.80;86.20;;;;;;5113205;28;20226;-61
2023/05/05 05:46:35;;;;;;;;;;;18.80;86.20;;;;;;5112633;28;19965;-61
2023/05/05 05:49:00;;;;;;;;;;;18.80;86.20;;;;;;5114086;28;19912;-61
2023/05/05 05:51:26;;;;;;;;;;;18.80;86.20;;;;;;5114305;28;20369;-61
2023/05/05 05:53:52;;;;;;;;;;;18.80;86.20;;;;;;5113554;28;19912;-61
2023/05/05 05:56:17;;;;;;;;;;;18.80;86.20;;;;;;5114495;28;19908;-61
2023/05/05 05:58:44;;;;;;;;;;;18.80;86.30;;;;;;5113876;28;19907;-61
2023/05/05 06:01:09;;;;;;;;;;;18.80;86.30;;;;;;5112837;28;19916;-61
2023/05/05 06:03:35;;;;;;;;;;;18.80;86.30;;;;;;5113275;28;20307;-60
2023/05/05 06:06:00;;;;;;;;;;;18.80;86.30;;;;;;5114972;27;20355;-61
2023/05/05 06:08:26;;;;;;;;;;;18.80;86.30;;;;;;5114205;28;19931;-61
2023/05/05 06:10:52;;;;;;;;;;;18.80;86.30;;;;;;5113701;28;19951;-61
2023/05/05 06:13:17;;;;;;;;;;;18.80;86.20;;;;;;5114267;27;19923;-61
2023/05/05 06:15:43;;;;;;;;;;;18.80;86.20;;;;;;5112602;28;19912;-60
2023/05/05 06:18:08;;;;;;;;;;;18.80;86.20;;;;;;5113662;28;20343;-61
2023/05/05 06:20:33;;;;;;;;;;;18.80;86.20;;;;;;5113901;28;20010;-61
2023/05/05 06:22:59;;;;;;;;;;;18.80;86.10;;;;;;5113670;28;19912;-61
2023/05/05 06:25:25;;;;;;;;;;;18.80;86.10;;;;;;5115841;27;19964;-61
2023/05/05 06:27:50;;;;;;;;;;;18.90;86.20;;;;;;5117697;28;20355;-61
2023/05/05 06:30:16;;;;;;;;;;;18.90;86.20;;;;;;5115602;27;19923;-61
2023/05/05 06:32:42;;;;;;;;;;;18.90;86.20;;;;;;5117759;28;19907;-61
2023/05/05 06:35:07;;;;;;;;;;;18.90;86.20;;;;;;5117593;28;20363;-61
2023/05/05 06:37:33;;;;;;;;;;;18.90;86.20;;;;;;5117208;28;20010;-62
2023/05/05 06:39:58;;;;;;;;;;;18.90;86.70;;;;;;5115225;27;19912;-61
2023/05/05 06:42:24;;;;;;;;;;;18.90;86.20;;;;;;5117832;27;19911;-61
2023/05/05 06:44:49;;;;;;;;;;;18.90;86.20;;;;;;5117538;28;19980;-60
2023/05/05 06:47:15;;;;;;;;;;;18.90;86.70;;;;;;5117140;28;19911;-60
2023/05/05 06:49:40;;;;;;;;;;;18.90;86.20;;;;;;5116679;27;20324;-61
2023/05/05 06:52:07;;;;;;;;;;;18.90;86.20;;;;;;5117364;28;20322;-61
2023/05/05 06:54:32;;;;;;;;;;;18.90;86.20;;;;;;5116885;28;19908;-61
2023/05/05 06:56:58;;;;;;;;;;;18.90;86.20;;;;;;5117047;28;19953;-61
2023/05/05 06:59:23;;;;;;;;;;;18.90;86.20;;;;;;5116638;28;20273;-61
2023/05/05 07:01:49;;;;;;;;;;;18.90;86.20;;;;;;5115705;27;20371;-61
2023/05/05 07:04:15;;;;;;;;;;;18.90;86.20;;;;;;5117093;28;19994;-60
2023/05/05 07:06:40;;;;;;;;;;;18.90;86.30;;;;;;5116728;28;20022;-61
2023/05/05 07:09:06;;;;;;;;;;;18.90;86.30;;;;;;5116831;28;20041;-61
2023/05/05 07:11:31;;;;;;;;;;;18.90;86.30;;;;;;5115624;27;19911;-61
2023/05/05 07:13:57;;;;;;;;;;;18.90;86.30;;;;;;5117304;28;19938;-61
2023/05/05 07:16:23;;;;;;;;;;;18.90;86.30;;;;;;5116585;28;19965;-61
2023/05/05 07:18:48;;;;;;;;;;;18.90;86.30;;;;;;5116879;28;19908;-60
2023/05/05 07:21:14;;;;;;;;;;;18.90;86.30;;;;;;5116044;27;19915;-61
2023/05/05 07:23:39;;;;;;;;;;;18.90;86.20;;;;;;5116742;27;19958;-61
2023/05/05 07:26:05;;;;;;;;;;;18.90;86.20;;;;;;5115264;28;20010;-61
2023/05/05 07:28:31;;;;;;;;;;;18.90;86.30;;;;;;5116522;28;20377;-61
2023/05/05 07:30:56;;;;;;;;;;;18.90;86.20;;;;;;5115494;27;19912;-61
2023/05/05 07:33:21;;;;;;;;;;;18.90;86.20;;;;;;5115466;27;19919;-59
2023/05/05 07:35:47;;;;;;;;;;;18.90;86.20;;;;;;5116147;28;19952;-59
2023/05/05 07:38:12;;;;;;;;;;;18.90;86.80;;;;;;5115051;27;20290;-60
2023/05/05 07:40:38;;;;;;;;;;;18.90;86.20;;;;;;5116225;28;19907;-59
2023/05/05 07:43:03;;;;;;;;;;;18.90;86.30;;;;;;5114871;28;20265;-60
2023/05/05 07:45:30;;;;;;;;;;;18.90;86.30;;;;;;5116089;28;19911;-59
2023/05/05 07:47:55;;;;;;;;;;;18.90;86.30;;;;;;5115045;28;19916;-60
2023/05/05 07:50:22;;;;;;;;;;;18.90;86.30;;;;;;5114904;28;19934;-59
2023/05/05 07:52:47;;;;;;;;;;;18.90;86.30;;;;;;5116103;28;19908;-60
2023/05/05 07:55:13;;;;;;;;;;;18.90;86.30;;;;;;5116163;28;20311;-60
2023/05/05 07:57:38;;;;;;;;;;;18.90;86.40;;;;;;5115634;27;19980;-60
2023/05/05 08:00:04;;;;;;;;;;;18.90;86.30;;;;;;5116406;28;19915;-59
2023/05/05 08:02:30;;;;;;;;;;;18.90;86.40;;;;;;5115752;28;19912;-60
2023/05/05 08:04:55;;;;;;;;;;;18.90;86.30;;;;;;5115591;27;19915;-60
2023/05/05 08:07:21;;;;;;;;;;;18.90;86.30;;;;;;5115751;28;19911;-60
2023/05/05 08:09:46;;;;;;;;;;;18.90;86.30;;;;;;5115057;27;19926;-60
2023/05/05 08:12:13;;;;;;;;;;;18.90;86.30;;;;;;5114136;28;19908;-60
2023/05/05 08:14:39;;;;;;;;;;;18.90;86.30;;;;;;5115717;28;19908;-60
2023/05/05 08:17:05;;;;;;;;;;;18.90;86.30;;;;;;5115712;28;19914;-60
2023/05/05 08:19:30;;;;;;;;;;;18.90;86.30;;;;;;5114407;28;19974;-60
2023/05/05 08:21:56;;;;;;;;;;;18.90;86.20;;;;;;5115352;28;19915;-60
2023/05/05 08:24:21;;;;;;;;;;;18.90;86.20;;;;;;5115517;27;19908;-60
2023/05/05 08:26:47;;;;;;;;;;;18.90;86.20;;;;;;5115466;28;19918;-61
2023/05/05 08:29:12;;;;;;;;;;;18.90;86.30;;;;;;5115104;28;19930;-61
2023/05/05 08:31:37;;;;;;;;;;;18.90;86.30;;;;;;5115387;28;20328;-61
2023/05/05 08:34:04;;;;;;;;;;;18.90;86.30;;;;;;5115254;27;19943;-61
2023/05/05 08:36:29;;;;;;;;;;;18.90;86.30;;;;;;5115565;28;19908;-60
2023/05/05 08:38:55;;;;;;;;;;;18.90;86.30;;;;;;5113635;27;19968;-60
2023/05/05 08:41:21;;;;;;;;;;;18.90;86.30;;;;;;5115087;28;19908;-60
2023/05/05 08:43:48;;;;;;;;;;;18.90;86.30;;;;;;5115144;28;19927;-60
2023/05/05 08:46:13;;;;;;;;;;;18.90;86.40;;;;;;5113879;28;19912;-61
2023/05/05 08:48:40;;;;;;;;;;;18.90;86.40;;;;;;5114629;28;19934;-61
2023/05/05 08:51:07;;;;;;;;;;;18.90;86.40;;;;;;5113193;27;20431;-61
2023/05/05 08:53:51;;;;;;;;;;;18.90;86.40;;;;;;5114326;27;20293;-61
2023/05/05 08:56:18;;;;;;;;;;;18.90;86.40;;;;;;5114581;28;20358;-61
2023/05/05 08:58:45;;;;;;;;;;;18.90;86.40;;;;;;5115071;28;20315;-60
2023/05/05 09:01:11;;;;;;;;;;;18.90;86.40;;;;;;5113688;28;19965;-60
2023/05/05 09:03:37;;;;;;;;;;;18.90;86.40;;;;;;5114594;28;20282;-60
2023/05/05 09:06:03;;;;;;;;;;;18.90;86.40;;;;;;5114827;28;19908;-61
2023/05/05 09:08:29;;;;;;;;;;;18.90;86.50;;;;;;5114042;27;20289;-60
2023/05/05 09:10:55;;;;;;;;;;;18.90;86.40;;;;;;5114679;28;20251;-60
2023/05/05 09:13:20;;;;;;;;;;;18.90;86.40;;;;;;5114698;28;19915;-60
2023/05/05 09:15:46;;;;;;;;;;;18.90;86.40;;;;;;5114411;28;19908;-61
2023/05/05 09:18:11;;;;;;;;;;;18.90;86.40;;;;;;5113664;28;20015;-61
2023/05/05 09:20:38;;;;;;;;;;;18.90;86.40;;;;;;5113315;28;19915;-61
2023/05/05 09:23:11;;;;;;;;;;;18.90;86.40;;;;;;5114374;28;19914;-61
2023/05/05 09:25:37;;;;;;;;;;;18.90;86.50;;;;;;5113314;28;20352;-61
2023/05/05 09:28:09;;;;;;;;;;;19.00;86.50;;;;;;5113327;28;19978;-61
2023/05/05 09:30:35;;;;;;;;;;;19.00;86.50;;;;;;5114662;28;20383;-61
2023/05/05 09:33:01;;;;;;;;;;;19.00;86.50;;;;;;5114161;28;19908;-61
2023/05/05 09:35:27;;;;;;;;;;;19.00;86.40;;;;;;5114365;28;20266;-60
2023/05/05 09:37:52;;;;;;;;;;;19.00;86.40;;;;;;5113550;28;20023;-60
2023/05/05 09:40:18;;;;;;;;;;;19.00;86.40;;;;;;5114053;28;20358;-61
2023/05/05 09:42:44;;;;;;;;;;;19.00;86.40;;;;;;5114059;28;19919;-61
2023/05/05 09:45:15;;;;;;;;;;;19.00;86.40;;;;;;5114035;28;20003;-60
2023/05/05 09:47:41;;;;;;;;;;;19.00;86.40;;;;;;5113656;28;20346;-58
2023/05/05 09:50:09;;;;;;;;;;;19.00;86.40;;;;;;5113441;28;19912;-60
2023/05/05 09:52:35;;;;;;;;;;;19.00;86.40;;;;;;5114491;28;19908;-61
2023/05/05 09:55:00;;;;;;;;;;;19.00;86.40;;;;;;5114380;28;19947;-60
2023/05/05 09:57:27;;;;;;;;;;;19.00;86.40;;;;;;5114541;28;19907;-60
2023/05/05 09:59:56;;;;;;;;;;;19.00;86.40;;;;;;5116905;28;19912;-61
2023/05/05 10:02:30;;;;;;;;;;;19.00;86.40;;;;;;5118107;28;19914;-61
2023/05/05 10:05:11;;;;;;;;;;;19.00;86.40;;;;;;5118010;28;20077;-61
2023/05/05 10:07:37;;;;;;;;;;;19.00;86.50;;;;;;5117975;28;19912;-60
2023/05/05 10:10:03;;;;;;;;;;;19.00;86.50;;;;;;5116764;27;19916;-60
2023/05/05 10:12:30;;;;;;;;;;;19.00;86.50;;;;;;5117555;28;20358;-60
2023/05/05 10:14:55;;;;;;;;;;;19.00;86.50;;;;;;5118319;28;20006;-62
2023/05/05 10:17:21;;;;;;;;;;;19.00;86.50;;;;;;5117938;28;20322;-62
2023/05/05 10:19:47;;;;;;;;;;;19.00;86.50;;;;;;5116619;28;19918;-62
2023/05/05 10:22:13;;;;;;;;;;;19.00;86.60;;;;;;5117695;28;19914;-61
2023/05/05 10:24:41;;;;;;;;;;;19.00;86.50;;;;;;5117719;27;20342;-62
2023/05/05 10:27:11;;;;;;;;;;;19.00;86.60;;;;;;5117840;28;19963;-62
2023/05/05 10:29:47;;;;;;;;;;;19.00;86.60;;;;;;5116760;28;19962;-61
2023/05/05 10:32:19;;;;;;;;;;;19.00;86.60;;;;;;5117577;28;19908;-61
2023/05/05 10:34:56;;;;;;;;;;;19.00;86.60;;;;;;5117553;28;19914;-61
2023/05/05 10:37:22;;;;;;;;;;;19.00;86.50;;;;;;5116416;28;19970;-61
2023/05/05 10:39:48;;;;;;;;;;;19.00;86.50;;;;;;5115727;28;19907;-61
2023/05/05 10:42:14;;;;;;;;;;;19.00;86.50;;;;;;5116839;28;19959;-61
2023/05/05 10:44:40;;;;;;;;;;;19.10;86.50;;;;;;5115955;28;19924;-61
2023/05/05 10:47:05;;;;;;;;;;;19.10;86.50;;;;;;5117232;28;20288;-61
2023/05/05 10:49:37;;;;;;;;;;;19.10;86.40;;;;;;5116069;28;19959;-61
2023/05/05 10:52:06;;;;;;;;;;;19.10;86.40;;;;;;5116170;28;19951;-61
2023/05/05 10:54:35;;;;;;;;;;;19.10;86.40;;;;;;5116955;28;19908;-61
2023/05/05 10:57:03;;;;;;;;;;;19.10;86.40;;;;;;5115605;28;20284;-61
2023/05/05 10:59:35;;;;;;;;;;;19.10;86.40;;;;;;5116608;28;19937;-60
2023/05/05 11:02:16;;;;;;;;;;;19.10;86.40;;;;;;5116881;28;19916;-61
2023/05/05 11:04:42;;;;;;;;;;;19.10;86.40;;;;;;5117475;28;19908;-60
2023/05/05 11:07:07;;;;;;;;;;;19.10;86.40;;;;;;5116721;28;19911;-61
2023/05/05 11:09:40;;;;;;;;;;;19.10;86.40;;;;;;5115496;27;19962;-60
2023/05/05 11:12:06;;;;;;;;;;;19.10;86.40;;;;;;5116902;28;19912;-60
2023/05/05 11:14:32;;;;;;;;;;;19.10;86.40;;;;;;5116511;28;20254;-60
2023/05/05 11:16:57;;;;;;;;;;;19.10;86.40;;;;;;5116737;28;20339;-60
2023/05/05 11:19:41;;;;;;;;;;;19.10;86.50;;;;;;5115063;27;20430;-59
2023/05/05 11:22:06;;;;;;;;;;;19.10;86.40;;;;;;5116736;28;19918;-60
2023/05/05 11:24:32;;;;;;;;;;;19.10;86.50;;;;;;5116902;28;20288;-60
2023/05/05 11:26:57;;;;;;;;;;;19.10;86.50;;;;;;5116046;28;19947;-59
2023/05/05 11:29:23;;;;;;;;;;;19.10;86.40;;;;;;5115594;27;19993;-59
2023/05/05 11:32:07;;;;;;;;;;;19.10;86.50;;;;;;5115814;28;19915;-60
2023/05/05 11:34:33;;;;;;;;;;;19.10;86.50;;;;;;5116519;28;19915;-60
2023/05/05 11:37:04;;;;;;;;;;;19.10;86.50;;;;;;5116054;28;20293;-61
2023/05/05 11:39:37;;;;;;;;;;;19.10;86.50;;;;;;5115728;27;19912;-61
2023/05/05 11:42:07;;;;;;;;;;;19.10;86.50;;;;;;5116097;28;19907;-61
2023/05/05 11:44:33;;;;;;;;;;;19.10;86.50;;;;;;5115514;28;19924;-61
2023/05/05 11:46:59;;;;;;;;;;;19.10;86.50;;;;;;5115735;28;19911;-61
2023/05/05 11:49:34;;;;;;;;;;;19.10;86.50;;;;;;5113968;28;19916;-61
2023/05/05 11:52:06;;;;;;;;;;;19.10;86.50;;;;;;5115856;28;19919;-60
2023/05/05 11:54:34;;;;;;;;;;;19.10;86.50;;;;;;5114744;28;20269;-60
2023/05/05 11:57:04;;;;;;;;;;;19.10;86.40;;;;;;5115745;28;20025;-61
2023/05/05 11:59:37;;;;;;;;;;;19.10;86.40;;;;;;5115214;27;20404;-61
2023/05/05 12:02:03;;;;;;;;;;;19.20;86.50;;;;;;5115756;28;19912;-60
2023/05/05 12:04:29;;;;;;;;;;;19.20;86.50;;;;;;5115730;27;20260;-60
2023/05/05 12:06:55;;;;;;;;;;;19.20;86.40;;;;;;5113962;28;19923;-60
2023/05/05 12:09:21;;;;;;;;;;;19.20;86.40;;;;;;5116805;27;19939;-61
2023/05/05 12:11:47;;;;;;;;;;;19.20;86.40;;;;;;5115738;28;20355;-61
2023/05/05 12:14:13;;;;;;;;;;;19.20;86.40;;;;;;5114317;28;19979;-61
2023/05/05 12:16:38;;;;;;;;;;;19.20;86.30;;;;;;5115652;28;20004;-61
2023/05/05 12:19:05;;;;;;;;;;;19.20;86.30;;;;;;5113129;28;20387;-60
2023/05/05 12:21:31;;;;;;;;;;;19.20;86.30;;;;;;5115004;28;19919;-61
2023/05/05 12:23:56;;;;;;;;;;;19.20;86.40;;;;;;5115384;28;19908;-60
2023/05/05 12:26:26;;;;;;;;;;;19.20;86.40;;;;;;5115494;28;20334;-61
2023/05/05 12:28:51;;;;;;;;;;;19.20;86.40;;;;;;5114774;28;20271;-61
2023/05/05 12:31:17;;;;;;;;;;;19.20;86.40;;;;;;5115005;28;20373;-61
2023/05/05 12:33:43;;;;;;;;;;;19.20;86.40;;;;;;5115128;28;19908;-61
2023/05/05 12:36:08;;;;;;;;;;;19.20;86.40;;;;;;5115002;28;20010;-61
2023/05/05 12:38:37;;;;;;;;;;;19.20;86.90;;;;;;5114232;27;19912;-61
2023/05/05 12:41:03;;;;;;;;;;;19.20;86.40;;;;;;5115239;28;19956;-60
2023/05/05 12:43:37;;;;;;;;;;;19.20;86.40;;;;;;5090996;28;19912;-59
2023/05/05 12:46:03;;;;;;;;;;;19.20;86.40;;;;;;5091398;28;19999;-60
2023/05/05 12:48:28;;;;;;;;;;;19.20;86.50;;;;;;5089895;28;20371;-60
2023/05/05 12:50:54;;;;;;;;;;;19.20;86.50;;;;;;5091134;28;19970;-60
2023/05/05 12:53:20;;;;;;;;;;;19.20;86.50;;;;;;5090868;28;20274;-60
2023/05/05 12:55:46;;;;;;;;;;;19.20;86.50;;;;;;5089286;28;19909;-60
2023/05/05 12:58:11;;;;;;;;;;;19.20;86.50;;;;;;5090170;28;19912;-60
2023/05/05 13:00:37;;;;;;;;;;;19.20;86.50;;;;;;5090816;28;19913;-61
2023/05/05 13:03:04;;;;;;;;;;;19.20;86.50;;;;;;5090774;28;19946;-61
2023/05/05 13:05:34;;;;;;;;;;;19.20;86.50;;;;;;5090882;28;19915;-60
2023/05/05 13:08:00;;;;;;;;;;;19.20;86.50;;;;;;5090472;28;19924;-60
2023/05/05 13:10:27;;;;;;;;;;;19.20;86.50;;;;;;5089443;28;19912;-60
2023/05/05 13:12:56;;;;;;;;;;;19.20;86.50;;;;;;5089396;28;19913;-60
2023/05/05 13:15:22;;;;;;;;;;;19.20;86.50;;;;;;5090210;28;19909;-60
2023/05/05 13:17:47;;;;;;;;;;;19.20;86.40;;;;;;5090317;28;19912;-60
2023/05/05 13:20:13;;;;;;;;;;;19.20;86.40;;;;;;5088852;28;19920;-60
2023/05/05 13:22:38;;;;;;;;;;;19.20;86.40;;;;;;5089996;28;19920;-61
2023/05/05 13:25:04;;;;;;;;;;;19.20;86.40;;;;;;5090374;28;20279;-60
2023/05/05 13:27:30;;;;;;;;;;;19.20;86.40;;;;;;5088626;28;19915;-60
2023/05/05 13:29:55;;;;;;;;;;;19.20;86.40;;;;;;5089699;28;19912;-59
2023/05/05 13:32:20;;;;;;;;;;;19.20;86.40;;;;;;5090243;28;19915;-60
2023/05/05 13:34:46;;;;;;;;;;;19.20;86.40;;;;;;5090362;28;19916;-59
2023/05/05 13:37:11;;;;;;;;;;;19.20;86.40;;;;;;5089849;28;19999;-60
2023/05/05 13:39:37;;;;;;;;;;;19.20;86.40;;;;;;5087851;28;19939;-60
2023/05/05 13:42:02;;;;;;;;;;;19.30;86.50;;;;;;5088534;28;19958;-59
2023/05/05 13:44:28;;;;;;;;;;;19.30;86.50;;;;;;5089927;28;20263;-60
2023/05/05 13:46:53;;;;;;;;;;;19.20;86.40;;;;;;5089566;28;19908;-60
2023/05/05 13:49:19;;;;;;;;;;;19.20;86.40;;;;;;5089909;28;19908;-61
2023/05/05 13:51:45;;;;;;;;;;;19.30;86.50;;;;;;5089707;28;19952;-61
2023/05/05 13:54:11;;;;;;;;;;;19.20;86.40;;;;;;5080469;28;20078;-60
2023/05/05 13:56:36;;;;;;;;;;;19.20;86.40;;;;;;5075900;28;20387;-60
2023/05/05 13:59:02;;;;;;;;;;;19.30;86.50;;;;;;5075305;28;19912;-60
2023/05/05 14:01:28;;;;;;;;;;;19.20;86.40;;;;;;5076271;28;20005;-60
2023/05/05 14:03:53;;;;;;;;;;;19.20;86.40;;;;;;5076271;28;19916;-60
2023/05/05 14:06:19;;;;;;;;;;;19.20;86.40;;;;;;5074478;28;19962;-61
2023/05/05 14:08:45;;;;;;;;;;;19.20;86.40;;;;;;5075248;28;19923;-60
2023/05/05 14:11:10;;;;;;;;;;;19.30;86.50;;;;;;5076114;28;19909;-60
2023/05/05 14:13:36;;;;;;;;;;;19.20;86.50;;;;;;5076096;28;19908;-60